Time,TemperatureF,DewpointF,PressureIn,WindDirection,WindDirectionDegrees,WindSpeedMPH,WindSpeedGustMPH,Humidity,HourlyPrecipIn,Conditions,Clouds,dailyrainin,SoftwareType,DateUTC
2013-03-21 00:00:00,8.1,0.4,30.15,North,0,1.0,2.0,70,0.00,,,0.00,vanprod-2.3,2013-03-21 05:00:00,
2013-03-21 00:05:00,7.9,0.2,30.15,North,360,1.0,2.0,70,0.00,,,0.00,vanprod-2.3,2013-03-21 05:05:00,
2013-03-21 00:10:00,7.9,0.2,30.14,North,360,2.0,4.0,70,0.00,,,0.00,vanprod-2.3,2013-03-21 05:10:00,
2013-03-21 00:15:00,7.8,0.1,30.14,North,0,1.0,2.0,70,0.00,,,0.00,vanprod-2.3,2013-03-21 05:15:00,
2013-03-21 00:20:00,7.8,0.1,30.14,North,353,2.0,3.0,70,0.00,,,0.00,vanprod-2.3,2013-03-21 05:20:00,
2013-03-21 00:25:00,7.6,-0.1,30.14,North,353,1.0,2.0,70,0.00,,,0.00,vanprod-2.3,2013-03-21 05:25:00,
2013-03-21 00:30:00,7.6,-0.1,30.14,North,353,1.0,3.0,70,0.00,,,0.00,vanprod-2.3,2013-03-21 05:30:00,
2013-03-21 00:35:00,7.4,-0.3,30.14,North,353,1.0,1.0,70,0.00,,,0.00,vanprod-2.3,2013-03-21 05:35:00,
2013-03-21 00:40:00,7.4,-0.3,30.14,North,353,0.0,0.0,70,0.00,,,0.00,vanprod-2.3,2013-03-21 05:40:00,
2013-03-21 00:45:00,7.2,-0.2,30.14,North,353,0.0,1.0,71,0.00,,,0.00,vanprod-2.3,2013-03-21 05:45:00,
2013-03-21 00:50:00,7.1,-0.3,30.14,North,353,0.0,0.0,71,0.00,,,0.00,vanprod-2.3,2013-03-21 05:50:00,
2013-03-21 00:55:00,6.9,-0.5,30.14,North,353,1.0,1.0,71,0.00,,,0.00,vanprod-2.3,2013-03-21 05:55:00,
2013-03-21 01:00:00,6.9,-0.5,30.14,North,353,0.0,0.0,71,0.00,,,0.00,vanprod-2.3,2013-03-21 06:00:00,
2013-03-21 01:05:00,6.7,-0.4,30.14,North,353,0.0,0.0,72,0.00,,,0.00,vanprod-2.3,2013-03-21 06:05:00,
2013-03-21 01:10:00,6.7,-0.7,30.14,North,353,0.0,1.0,71,0.00,,,0.00,vanprod-2.3,2013-03-21 06:10:00,
2013-03-21 01:19:00,6.5,-0.6,30.14,North,352,1.0,1.0,72,0.00,,,0.00,vanprod-2.3,2013-03-21 06:19:00,
2013-03-21 01:24:00,6.4,-0.7,30.14,North,352,0.0,0.0,72,0.00,,,0.00,vanprod-2.3,2013-03-21 06:24:00,
2013-03-21 01:29:00,6.4,-0.7,30.14,North,352,1.0,2.0,72,0.00,,,0.00,vanprod-2.3,2013-03-21 06:29:00,
2013-03-21 01:34:00,6.2,-0.9,30.13,North,352,1.0,1.0,72,0.00,,,0.00,vanprod-2.3,2013-03-21 06:34:00,
2013-03-21 01:39:00,6.0,-1.1,30.13,North,352,0.0,0.0,72,0.00,,,0.00,vanprod-2.3,2013-03-21 06:39:00,
2013-03-21 01:44:00,6.0,-0.8,30.13,North,352,1.0,2.0,73,0.00,,,0.00,vanprod-2.3,2013-03-21 06:44:00,
2013-03-21 01:49:00,5.8,-1.0,30.13,North,352,0.0,0.0,73,0.00,,,0.00,vanprod-2.3,2013-03-21 06:49:00,
2013-03-21 01:54:00,5.6,-1.2,30.13,North,352,0.0,0.0,73,0.00,,,0.00,vanprod-2.3,2013-03-21 06:54:00,
2013-03-21 01:59:00,5.5,-1.3,30.13,North,352,0.0,0.0,73,0.00,,,0.00,vanprod-2.3,2013-03-21 06:59:00,
2013-03-21 02:04:00,5.5,-1.3,30.13,North,352,0.0,1.0,73,0.00,,,0.00,vanprod-2.3,2013-03-21 07:04:00,
2013-03-21 02:09:00,5.3,-1.5,30.12,North,352,0.0,1.0,73,0.00,,,0.00,vanprod-2.3,2013-03-21 07:09:00,
2013-03-21 02:14:00,5.3,-1.2,30.12,North,352,1.0,1.0,74,0.00,,,0.00,vanprod-2.3,2013-03-21 07:14:00,
2013-03-21 02:19:00,5.3,-1.2,30.12,North,352,0.0,1.0,74,0.00,,,0.00,vanprod-2.3,2013-03-21 07:19:00,
2013-03-21 02:24:00,5.5,-1.0,30.12,North,349,2.0,5.0,74,0.00,,,0.00,vanprod-2.3,2013-03-21 07:24:00,
2013-03-21 02:29:00,5.5,-1.0,30.12,North,349,2.0,3.0,74,0.00,,,0.00,vanprod-2.3,2013-03-21 07:29:00,
2013-03-21 02:34:00,5.6,-0.9,30.12,North,353,2.0,2.0,74,0.00,,,0.00,vanprod-2.3,2013-03-21 07:34:00,
2013-03-21 02:39:00,5.6,-0.9,30.11,North,353,2.0,3.0,74,0.00,,,0.00,vanprod-2.3,2013-03-21 07:39:00,
2013-03-21 02:44:00,5.8,-1.0,30.11,North,353,1.0,2.0,73,0.00,,,0.00,vanprod-2.3,2013-03-21 07:44:00,
2013-03-21 02:49:00,5.8,-1.0,30.11,North,353,0.0,0.0,73,0.00,,,0.00,vanprod-2.3,2013-03-21 07:49:00,
2013-03-21 02:54:00,5.8,-1.0,30.11,North,353,1.0,0.0,73,0.00,,,0.00,vanprod-2.3,2013-03-21 07:54:00,
2013-03-21 02:59:00,5.8,-1.0,30.11,North,353,2.0,2.0,73,0.00,,,0.00,vanprod-2.3,2013-03-21 07:59:00,
2013-03-21 03:04:00,5.6,-1.2,30.11,North,353,0.0,0.0,73,0.00,,,0.00,vanprod-2.3,2013-03-21 08:04:00,
2013-03-21 03:09:00,5.6,-1.2,30.11,North,353,2.0,2.0,73,0.00,,,0.00,vanprod-2.3,2013-03-21 08:09:00,
2013-03-21 03:14:00,5.5,-1.3,30.11,North,353,0.0,2.0,73,0.00,,,0.00,vanprod-2.3,2013-03-21 08:14:00,
2013-03-21 03:19:00,5.5,-1.3,30.11,North,353,0.0,0.0,73,0.00,,,0.00,vanprod-2.3,2013-03-21 08:19:00,
2013-03-21 03:24:00,5.3,-1.5,30.11,North,353,0.0,0.0,73,0.00,,,0.00,vanprod-2.3,2013-03-21 08:24:00,
2013-03-21 03:29:00,4.9,-2.1,30.11,North,353,1.0,1.0,72,0.00,,,0.00,vanprod-2.3,2013-03-21 08:29:00,
2013-03-21 03:34:00,4.2,-2.2,30.11,North,353,1.0,1.0,74,0.00,,,0.00,vanprod-2.3,2013-03-21 08:34:00,
2013-03-21 03:39:00,3.6,-2.8,30.11,North,353,0.0,0.0,74,0.00,,,0.00,vanprod-2.3,2013-03-21 08:39:00,
2013-03-21 03:44:00,3.4,-2.7,30.11,North,353,0.0,0.0,75,0.00,,,0.00,vanprod-2.3,2013-03-21 08:44:00,
2013-03-21 03:49:00,3.0,-2.8,30.11,North,353,0.0,0.0,76,0.00,,,0.00,vanprod-2.3,2013-03-21 08:49:00,
2013-03-21 03:54:00,2.9,-2.9,30.11,North,353,0.0,0.0,76,0.00,,,0.00,vanprod-2.3,2013-03-21 08:54:00,
2013-03-21 03:59:00,2.9,-2.7,30.11,North,353,0.0,0.0,77,0.00,,,0.00,vanprod-2.3,2013-03-21 08:59:00,
2013-03-21 04:04:00,2.7,-2.9,30.11,North,353,0.0,1.0,77,0.00,,,0.00,vanprod-2.3,2013-03-21 09:04:00,
2013-03-21 04:09:00,2.7,-2.9,30.11,North,353,0.0,0.0,77,0.00,,,0.00,vanprod-2.3,2013-03-21 09:09:00,
2013-03-21 04:14:00,2.5,-2.8,30.11,North,353,1.0,1.0,78,0.00,,,0.00,vanprod-2.3,2013-03-21 09:14:00,
2013-03-21 04:19:00,2.3,-3.0,30.11,North,353,0.0,0.0,78,0.00,,,0.00,vanprod-2.3,2013-03-21 09:19:00,
2013-03-21 04:24:00,2.1,-3.2,30.10,North,353,0.0,0.0,78,0.00,,,0.00,vanprod-2.3,2013-03-21 09:24:00,
2013-03-21 04:29:00,1.9,-3.1,30.10,North,353,0.0,0.0,79,0.00,,,0.00,vanprod-2.3,2013-03-21 09:29:00,
2013-03-21 04:34:00,1.7,-3.6,30.10,North,353,0.0,0.0,78,0.00,,,0.00,vanprod-2.3,2013-03-21 09:34:00,
2013-03-21 04:39:00,1.5,-3.5,30.10,North,353,0.0,0.0,79,0.00,,,0.00,vanprod-2.3,2013-03-21 09:39:00,
2013-03-21 04:44:00,1.5,-3.5,30.09,North,353,0.0,0.0,79,0.00,,,0.00,vanprod-2.3,2013-03-21 09:44:00,
2013-03-21 04:49:00,1.5,-3.5,30.09,North,353,0.0,1.0,79,0.00,,,0.00,vanprod-2.3,2013-03-21 09:49:00,
2013-03-21 04:54:00,1.5,-3.5,30.09,North,353,1.0,2.0,79,0.00,,,0.00,vanprod-2.3,2013-03-21 09:54:00,
2013-03-21 04:59:00,1.5,-3.5,30.09,North,353,0.0,0.0,79,0.00,,,0.00,vanprod-2.3,2013-03-21 09:59:00,
2013-03-21 05:04:00,1.5,-3.5,30.09,North,353,0.0,0.0,79,0.00,,,0.00,vanprod-2.3,2013-03-21 10:04:00,
2013-03-21 05:09:00,1.5,-3.5,30.09,North,353,0.0,0.0,79,0.00,,,0.00,vanprod-2.3,2013-03-21 10:09:00,
2013-03-21 05:14:00,1.5,-3.5,30.09,North,353,0.0,0.0,79,0.00,,,0.00,vanprod-2.3,2013-03-21 10:14:00,
2013-03-21 05:19:00,1.5,-3.5,30.09,North,353,0.0,0.0,79,0.00,,,0.00,vanprod-2.3,2013-03-21 10:19:00,
2013-03-21 05:24:00,1.5,-3.5,30.10,North,353,0.0,0.0,79,0.00,,,0.00,vanprod-2.3,2013-03-21 10:24:00,
2013-03-21 05:29:00,1.3,-3.7,30.09,North,353,0.0,0.0,79,0.00,,,0.00,vanprod-2.3,2013-03-21 10:29:00,
2013-03-21 05:34:00,1.2,-4.0,30.09,North,353,0.0,0.0,78,0.00,,,0.00,vanprod-2.3,2013-03-21 10:34:00,
2013-03-21 05:39:00,1.3,-3.7,30.09,North,353,0.0,0.0,79,0.00,,,0.00,vanprod-2.3,2013-03-21 10:39:00,
2013-03-21 05:44:00,1.3,-3.7,30.09,North,353,0.0,0.0,79,0.00,,,0.00,vanprod-2.3,2013-03-21 10:44:00,
2013-03-21 05:49:00,1.3,-3.7,30.09,North,353,0.0,0.0,79,0.00,,,0.00,vanprod-2.3,2013-03-21 10:49:00,
2013-03-21 05:54:00,1.3,-3.7,30.09,North,353,0.0,0.0,79,0.00,,,0.00,vanprod-2.3,2013-03-21 10:54:00,
2013-03-21 05:59:00,1.3,-3.9,30.09,North,353,0.0,0.0,78,0.00,,,0.00,vanprod-2.3,2013-03-21 10:59:00,
2013-03-21 06:04:00,1.2,-4.0,30.09,North,353,1.0,2.0,78,0.00,,,0.00,vanprod-2.3,2013-03-21 11:04:00,
2013-03-21 06:09:00,0.8,-4.4,30.10,North,353,0.0,0.0,78,0.00,,,0.00,vanprod-2.3,2013-03-21 11:09:00,
2013-03-21 06:14:00,0.6,-4.6,30.10,North,353,0.0,0.0,78,0.00,,,0.00,vanprod-2.3,2013-03-21 11:14:00,
2013-03-21 06:19:00,0.4,-4.8,30.10,North,353,0.0,0.0,78,0.00,,,0.00,vanprod-2.3,2013-03-21 11:19:00,
2013-03-21 06:24:00,0.2,-5.0,30.10,North,353,0.0,0.0,78,0.00,,,0.00,vanprod-2.3,2013-03-21 11:24:00,
2013-03-21 06:29:00,0.0,-5.2,30.10,North,353,0.0,0.0,78,0.00,,,0.00,vanprod-2.3,2013-03-21 11:29:00,
2013-03-21 06:34:00,-0.2,-5.4,30.10,North,353,0.0,0.0,78,0.00,,,0.00,vanprod-2.3,2013-03-21 11:34:00,
2013-03-21 06:39:00,-0.2,-5.4,30.10,North,353,0.0,1.0,78,0.00,,,0.00,vanprod-2.3,2013-03-21 11:39:00,
2013-03-21 06:44:00,-0.4,-5.6,30.10,North,353,0.0,1.0,78,0.00,,,0.00,vanprod-2.3,2013-03-21 11:44:00,
2013-03-21 06:49:00,-0.4,-5.3,30.10,North,353,0.0,1.0,79,0.00,,,0.00,vanprod-2.3,2013-03-21 11:49:00,
2013-03-21 06:54:00,-0.4,-5.3,30.10,North,353,0.0,0.0,79,0.00,,,0.00,vanprod-2.3,2013-03-21 11:54:00,
2013-03-21 06:59:00,-0.4,-5.3,30.09,North,353,1.0,1.0,79,0.00,,,0.00,vanprod-2.3,2013-03-21 11:59:00,
2013-03-21 07:04:00,-0.4,-5.3,30.09,North,353,0.0,0.0,79,0.00,,,0.00,vanprod-2.3,2013-03-21 12:04:00,
2013-03-21 07:09:00,-0.4,-5.3,30.09,North,353,0.0,0.0,79,0.00,,,0.00,vanprod-2.3,2013-03-21 12:09:00,
2013-03-21 07:14:00,-0.4,-5.1,30.09,North,353,0.0,0.0,80,0.00,,,0.00,vanprod-2.3,2013-03-21 12:14:00,
2013-03-21 07:19:00,-0.2,-4.9,30.09,North,353,1.0,1.0,80,0.00,,,0.00,vanprod-2.3,2013-03-21 12:19:00,
2013-03-21 07:24:00,-0.4,-5.3,30.10,North,353,0.0,0.0,79,0.00,,,0.00,vanprod-2.3,2013-03-21 12:24:00,
2013-03-21 07:29:00,-0.4,-5.3,30.10,North,353,0.0,0.0,79,0.00,,,0.00,vanprod-2.3,2013-03-21 12:29:00,
2013-03-21 07:34:00,-0.5,-5.4,30.10,North,353,0.0,0.0,79,0.00,,,0.00,vanprod-2.3,2013-03-21 12:34:00,
2013-03-21 07:39:00,-0.7,-5.6,30.10,North,353,0.0,0.0,79,0.00,,,0.00,vanprod-2.3,2013-03-21 12:39:00,
2013-03-21 07:44:00,-0.5,-5.4,30.10,North,353,0.0,0.0,79,0.00,,,0.00,vanprod-2.3,2013-03-21 12:44:00,
2013-03-21 07:49:00,-0.5,-5.7,30.10,North,353,0.0,1.0,78,0.00,,,0.00,vanprod-2.3,2013-03-21 12:49:00,
2013-03-21 07:54:00,-0.5,-5.4,30.10,North,353,1.0,1.0,79,0.00,,,0.00,vanprod-2.3,2013-03-21 12:54:00,
2013-03-21 07:59:00,-0.5,-5.4,30.10,North,353,2.0,2.0,79,0.00,,,0.00,vanprod-2.3,2013-03-21 12:59:00,
2013-03-21 08:04:00,-0.5,-5.4,30.10,North,353,1.0,1.0,79,0.00,,,0.00,vanprod-2.3,2013-03-21 13:04:00,
2013-03-21 08:09:00,-0.4,-5.3,30.11,North,353,0.0,0.0,79,0.00,,,0.00,vanprod-2.3,2013-03-21 13:09:00,
2013-03-21 08:14:00,-0.2,-5.1,30.11,North,353,0.0,0.0,79,0.00,,,0.00,vanprod-2.3,2013-03-21 13:14:00,
2013-03-21 08:19:00,0.2,-4.5,30.11,North,353,0.0,0.0,80,0.00,,,0.00,vanprod-2.3,2013-03-21 13:19:00,
2013-03-21 08:24:00,0.8,-3.9,30.10,North,353,0.0,0.0,80,0.00,,,0.00,vanprod-2.3,2013-03-21 13:24:00,
2013-03-21 08:29:00,1.2,-4.0,30.10,North,353,1.0,0.0,78,0.00,,,0.00,vanprod-2.3,2013-03-21 13:29:00,
2013-03-21 08:34:00,1.5,-3.8,30.10,North,353,0.0,0.0,78,0.00,,,0.00,vanprod-2.3,2013-03-21 13:34:00,
2013-03-21 08:39:00,2.3,-3.0,30.10,North,353,0.0,0.0,78,0.00,,,0.00,vanprod-2.3,2013-03-21 13:39:00,
2013-03-21 08:44:00,2.9,-2.4,30.10,North,353,0.0,1.0,78,0.00,,,0.00,vanprod-2.3,2013-03-21 13:44:00,
2013-03-21 08:49:00,3.0,-2.8,30.10,North,353,1.0,2.0,76,0.00,,,0.00,vanprod-2.3,2013-03-21 13:49:00,
2013-03-21 08:54:00,3.0,-2.8,30.10,North,353,1.0,0.0,76,0.00,,,0.00,vanprod-2.3,2013-03-21 13:54:00,
2013-03-21 08:59:00,3.4,-2.4,30.10,North,353,1.0,2.0,76,0.00,,,0.00,vanprod-2.3,2013-03-21 13:59:00,
2013-03-21 09:04:00,4.0,-2.1,30.10,North,353,0.0,0.0,75,0.00,,,0.00,vanprod-2.3,2013-03-21 14:04:00,
2013-03-21 09:09:00,4.3,-2.1,30.10,North,353,0.0,0.0,74,0.00,,,0.00,vanprod-2.3,2013-03-21 14:09:00,
2013-03-21 09:14:00,4.7,-2.0,30.10,North,353,1.0,0.0,73,0.00,,,0.00,vanprod-2.3,2013-03-21 14:14:00,
2013-03-21 09:19:00,5.3,-1.7,30.10,North,353,2.0,2.0,72,0.00,,,0.00,vanprod-2.3,2013-03-21 14:19:00,
2013-03-21 09:24:00,6.2,-1.2,30.10,North,353,1.0,2.0,71,0.00,,,0.00,vanprod-2.3,2013-03-21 14:24:00,
2013-03-21 09:29:00,6.9,-0.8,30.10,North,353,1.0,0.0,70,0.00,,,0.00,vanprod-2.3,2013-03-21 14:29:00,
2013-03-21 09:34:00,7.4,-0.9,30.10,North,353,2.0,2.0,68,0.00,,,0.00,vanprod-2.3,2013-03-21 14:34:00,
2013-03-21 09:39:00,7.2,-1.4,30.10,North,354,1.0,1.0,67,0.00,,,0.00,vanprod-2.3,2013-03-21 14:39:00,
2013-03-21 09:44:00,6.9,-2.0,30.10,North,360,3.0,5.0,66,0.00,,,0.00,vanprod-2.3,2013-03-21 14:44:00,
2013-03-21 09:49:00,6.0,-2.6,30.10,North,358,3.0,3.0,67,0.00,,,0.00,vanprod-2.3,2013-03-21 14:49:00,
2013-03-21 09:54:00,6.2,-2.1,30.10,North,359,1.0,1.0,68,0.00,,,0.00,vanprod-2.3,2013-03-21 14:54:00,
2013-03-21 09:59:00,6.4,-1.6,30.10,North,360,0.0,0.0,69,0.00,,,0.00,vanprod-2.3,2013-03-21 14:59:00,
2013-03-21 10:04:00,7.1,-1.2,30.10,North,359,1.0,0.0,68,0.00,,,0.00,vanprod-2.3,2013-03-21 15:04:00,
2013-03-21 10:09:00,7.6,-1.1,30.09,North,358,0.0,0.0,67,0.00,,,0.00,vanprod-2.3,2013-03-21 15:09:00,
2013-03-21 10:14:00,8.3,-0.7,30.10,North,359,0.0,0.0,66,0.00,,,0.00,vanprod-2.3,2013-03-21 15:14:00,
2013-03-21 10:19:00,9.0,-0.4,30.10,North,359,0.0,0.0,65,0.00,,,0.00,vanprod-2.3,2013-03-21 15:19:00,
2013-03-21 10:24:00,9.5,-0.2,30.09,North,359,1.0,1.0,64,0.00,,,0.00,vanprod-2.3,2013-03-21 15:24:00,
2013-03-21 10:29:00,9.4,-0.3,30.10,North,359,1.0,1.0,64,0.00,,,0.00,vanprod-2.3,2013-03-21 15:29:00,
2013-03-21 10:34:00,9.2,-0.5,30.09,North,360,2.0,2.0,64,0.00,,,0.00,vanprod-2.3,2013-03-21 15:34:00,
2013-03-21 10:39:00,8.8,-0.9,30.09,North,360,4.0,4.0,64,0.00,,,0.00,vanprod-2.3,2013-03-21 15:39:00,
2013-03-21 10:44:00,8.7,-0.3,30.09,North,360,2.0,3.0,66,0.00,,,0.00,vanprod-2.3,2013-03-21 15:44:00,
2013-03-21 10:49:00,8.8,-0.2,30.09,North,360,2.0,2.0,66,0.00,,,0.00,vanprod-2.3,2013-03-21 15:49:00,
2013-03-21 10:54:00,9.0,0.3,30.09,North,1,3.0,3.0,67,0.00,,,0.00,vanprod-2.3,2013-03-21 15:54:00,
2013-03-21 10:59:00,9.5,0.4,30.09,North,1,1.0,1.0,66,0.00,,,0.00,vanprod-2.3,2013-03-21 15:59:00,
2013-03-21 11:04:00,10.0,0.6,30.09,North,1,2.0,2.0,65,0.00,,,0.00,vanprod-2.3,2013-03-21 16:04:00,
2013-03-21 11:09:00,9.9,0.5,30.09,North,3,4.0,4.0,65,0.00,,,0.00,vanprod-2.3,2013-03-21 16:09:00,
2013-03-21 11:14:00,9.7,1.0,30.09,North,4,2.0,2.0,67,0.00,,,0.00,vanprod-2.3,2013-03-21 16:14:00,
2013-03-21 11:19:00,10.2,0.8,30.09,North,4,1.0,2.0,65,0.00,,,0.00,vanprod-2.3,2013-03-21 16:19:00,
2013-03-21 11:24:00,10.4,0.6,30.09,North,4,1.0,1.0,64,0.00,,,0.00,vanprod-2.3,2013-03-21 16:24:00,
2013-03-21 11:29:00,10.7,1.3,30.09,North,4,1.0,0.0,65,0.00,,,0.00,vanprod-2.3,2013-03-21 16:29:00,
2013-03-21 11:34:00,11.1,1.6,30.09,North,4,0.0,0.0,65,0.00,,,0.00,vanprod-2.3,2013-03-21 16:34:00,
2013-03-21 11:39:00,11.4,1.9,30.09,North,4,0.0,1.0,65,0.00,,,0.00,vanprod-2.3,2013-03-21 16:39:00,
2013-03-21 11:44:00,11.6,1.8,30.09,North,4,0.0,0.0,64,0.00,,,0.00,vanprod-2.3,2013-03-21 16:44:00,
2013-03-21 11:49:00,11.8,2.0,30.09,North,4,1.0,1.0,64,0.00,,,0.00,vanprod-2.3,2013-03-21 16:49:00,
2013-03-21 11:54:00,12.3,1.8,30.09,North,4,1.0,0.0,62,0.00,,,0.00,vanprod-2.3,2013-03-21 16:54:00,
2013-03-21 11:59:00,13.1,2.5,30.09,North,4,1.0,2.0,62,0.00,,,0.00,vanprod-2.3,2013-03-21 16:59:00,
2013-03-21 12:04:00,13.5,2.6,30.09,North,6,1.0,3.0,61,0.00,,,0.00,vanprod-2.3,2013-03-21 17:04:00,
2013-03-21 12:09:00,13.3,3.4,30.09,North,6,2.0,2.0,64,0.00,,,0.00,vanprod-2.3,2013-03-21 17:09:00,
2013-03-21 12:14:00,13.6,3.4,30.09,North,6,1.0,2.0,63,0.00,,,0.00,vanprod-2.3,2013-03-21 17:14:00,
2013-03-21 12:19:00,13.8,3.2,30.09,North,6,1.0,1.0,62,0.00,,,0.00,vanprod-2.3,2013-03-21 17:19:00,
2013-03-21 12:24:00,14.1,3.1,30.09,North,6,1.0,1.0,61,0.00,,,0.00,vanprod-2.3,2013-03-21 17:24:00,
2013-03-21 12:29:00,14.7,3.7,30.08,North,6,0.0,0.0,61,0.00,,,0.00,vanprod-2.3,2013-03-21 17:29:00,
2013-03-21 12:34:00,15.2,4.2,30.08,North,6,1.0,0.0,61,0.00,,,0.00,vanprod-2.3,2013-03-21 17:34:00,
2013-03-21 12:39:00,15.6,3.8,30.08,North,6,2.0,2.0,59,0.00,,,0.00,vanprod-2.3,2013-03-21 17:39:00,
2013-03-21 12:44:00,15.7,4.7,30.07,North,6,2.0,2.0,61,0.00,,,0.00,vanprod-2.3,2013-03-21 17:44:00,
2013-03-21 12:49:00,15.7,4.7,30.07,North,6,1.0,2.0,61,0.00,,,0.00,vanprod-2.3,2013-03-21 17:49:00,
2013-03-21 12:54:00,15.7,4.7,30.07,North,6,2.0,3.0,61,0.00,,,0.00,vanprod-2.3,2013-03-21 17:54:00,
2013-03-21 12:59:00,15.9,4.8,30.07,North,6,2.0,2.0,61,0.00,,,0.00,vanprod-2.3,2013-03-21 17:59:00,
2013-03-21 13:04:00,16.0,4.9,30.07,North,7,2.0,2.0,61,0.00,,,0.00,vanprod-2.3,2013-03-21 18:04:00,
2013-03-21 13:09:00,16.0,5.6,30.07,North,8,2.0,3.0,63,0.00,,,0.00,vanprod-2.3,2013-03-21 18:09:00,
2013-03-21 13:14:00,16.2,5.1,30.07,North,11,2.0,0.0,61,0.00,,,0.00,vanprod-2.3,2013-03-21 18:14:00,
2013-03-21 13:19:00,16.8,5.3,30.07,North,11,1.0,3.0,60,0.00,,,0.00,vanprod-2.3,2013-03-21 18:19:00,
2013-03-21 13:24:00,16.8,5.3,30.07,North,11,2.0,2.0,60,0.00,,,0.00,vanprod-2.3,2013-03-21 18:24:00,
2013-03-21 13:29:00,17.0,5.2,30.07,North,11,0.0,0.0,59,0.00,,,0.00,vanprod-2.3,2013-03-21 18:29:00,
2013-03-21 13:34:00,17.6,6.1,30.07,North,11,1.0,1.0,60,0.00,,,0.00,vanprod-2.3,2013-03-21 18:34:00,
2013-03-21 13:39:00,17.9,6.0,30.07,North,11,1.0,2.0,59,0.00,,,0.00,vanprod-2.3,2013-03-21 18:39:00,
2013-03-21 13:44:00,18.3,6.8,30.07,North,11,3.0,3.0,60,0.00,,,0.00,vanprod-2.3,2013-03-21 18:44:00,
2013-03-21 13:49:00,18.3,6.4,30.07,North,11,2.0,3.0,59,0.00,,,0.00,vanprod-2.3,2013-03-21 18:49:00,
2013-03-21 13:54:00,18.3,6.4,30.07,North,11,2.0,2.0,59,0.00,,,0.00,vanprod-2.3,2013-03-21 18:54:00,
2013-03-21 13:59:00,18.4,6.5,30.07,North,11,1.0,1.0,59,0.00,,,0.00,vanprod-2.3,2013-03-21 18:59:00,
2013-03-21 14:04:00,18.9,7.3,30.06,North,11,2.0,2.0,60,0.00,,,0.00,vanprod-2.3,2013-03-21 19:04:00,
2013-03-21 14:09:00,18.6,7.0,30.06,North,11,2.0,0.0,60,0.00,,,0.00,vanprod-2.3,2013-03-21 19:09:00,
2013-03-21 14:14:00,18.7,7.1,30.06,North,11,2.0,2.0,60,0.00,,,0.00,vanprod-2.3,2013-03-21 19:14:00,
2013-03-21 14:19:00,19.2,8.0,30.06,North,11,1.0,2.0,61,0.00,,,0.00,vanprod-2.3,2013-03-21 19:19:00,
2013-03-21 14:24:00,19.0,7.8,30.06,North,11,2.0,3.0,61,0.00,,,0.00,vanprod-2.3,2013-03-21 19:24:00,
2013-03-21 14:29:00,19.2,8.0,30.06,North,11,1.0,2.0,61,0.00,,,0.00,vanprod-2.3,2013-03-21 19:29:00,
2013-03-21 14:34:00,19.7,8.1,30.06,North,11,1.0,1.0,60,0.00,,,0.00,vanprod-2.3,2013-03-21 19:34:00,
2013-03-21 14:39:00,19.7,7.3,30.06,North,11,1.0,0.0,58,0.00,,,0.00,vanprod-2.3,2013-03-21 19:39:00,
2013-03-21 14:44:00,20.0,8.4,30.06,North,11,2.0,2.0,60,0.00,,,0.00,vanprod-2.3,2013-03-21 19:44:00,
2013-03-21 14:49:00,20.0,7.6,30.06,North,11,2.0,2.0,58,0.00,,,0.00,vanprod-2.3,2013-03-21 19:49:00,
2013-03-21 14:54:00,20.1,8.1,30.06,North,11,2.0,2.0,59,0.00,,,0.00,vanprod-2.3,2013-03-21 19:54:00,
2013-03-21 14:59:00,20.3,8.6,30.06,North,11,1.0,2.0,60,0.00,,,0.00,vanprod-2.3,2013-03-21 19:59:00,
2013-03-21 15:04:00,20.5,8.8,30.06,North,11,2.0,2.0,60,0.00,,,0.00,vanprod-2.3,2013-03-21 20:04:00,
2013-03-21 15:09:00,20.0,8.0,30.06,North,11,2.0,3.0,59,0.00,,,0.00,vanprod-2.3,2013-03-21 20:09:00,
2013-03-21 15:14:00,19.8,8.2,30.05,North,11,2.0,2.0,60,0.00,,,0.00,vanprod-2.3,2013-03-21 20:14:00,
2013-03-21 15:19:00,19.8,8.5,30.05,North,11,2.0,2.0,61,0.00,,,0.00,vanprod-2.3,2013-03-21 20:19:00,
2013-03-21 15:24:00,20.1,8.8,30.05,North,11,3.0,3.0,61,0.00,,,0.00,vanprod-2.3,2013-03-21 20:24:00,
2013-03-21 15:29:00,20.1,8.8,30.05,North,11,2.0,2.0,61,0.00,,,0.00,vanprod-2.3,2013-03-21 20:29:00,
2013-03-21 15:34:00,20.3,9.4,30.06,North,11,2.0,3.0,62,0.00,,,0.00,vanprod-2.3,2013-03-21 20:34:00,
2013-03-21 15:39:00,20.3,9.0,30.05,North,11,4.0,4.0,61,0.00,,,0.00,vanprod-2.3,2013-03-21 20:39:00,
2013-03-21 15:44:00,20.3,8.3,30.05,North,11,2.0,2.0,59,0.00,,,0.00,vanprod-2.3,2013-03-21 20:44:00,
2013-03-21 15:49:00,20.6,9.3,30.05,NNE,13,4.0,5.0,61,0.00,,,0.00,vanprod-2.3,2013-03-21 20:49:00,
2013-03-21 15:54:00,20.6,9.3,30.05,NNE,16,2.0,2.0,61,0.00,,,0.00,vanprod-2.3,2013-03-21 20:54:00,
2013-03-21 15:59:00,20.5,8.8,30.05,NE,35,2.0,3.0,60,0.00,,,0.00,vanprod-2.3,2013-03-21 20:59:00,
2013-03-21 16:04:00,20.6,9.3,30.05,NE,35,2.0,3.0,61,0.00,,,0.00,vanprod-2.3,2013-03-21 21:04:00,
2013-03-21 16:09:00,20.1,6.9,30.05,NE,35,3.0,3.0,56,0.00,,,0.00,vanprod-2.3,2013-03-21 21:09:00,
2013-03-21 16:14:00,20.3,8.6,30.05,NE,35,1.0,2.0,60,0.00,,,0.00,vanprod-2.3,2013-03-21 21:14:00,
2013-03-21 16:19:00,20.3,8.6,30.05,NE,35,3.0,3.0,60,0.00,,,0.00,vanprod-2.3,2013-03-21 21:19:00,
2013-03-21 16:24:00,20.3,7.9,30.05,NE,38,3.0,3.0,58,0.00,,,0.00,vanprod-2.3,2013-03-21 21:24:00,
2013-03-21 16:29:00,20.5,8.5,30.05,NE,38,3.0,6.0,59,0.00,,,0.00,vanprod-2.3,2013-03-21 21:29:00,
2013-03-21 16:34:00,20.8,9.8,30.05,NE,38,3.0,3.0,62,0.00,,,0.00,vanprod-2.3,2013-03-21 21:34:00,
2013-03-21 16:39:00,20.6,8.9,30.05,NE,38,2.0,2.0,60,0.00,,,0.00,vanprod-2.3,2013-03-21 21:39:00,
2013-03-21 16:44:00,20.5,8.8,30.04,NE,38,3.0,5.0,60,0.00,,,0.00,vanprod-2.3,2013-03-21 21:44:00,
2013-03-21 16:49:00,20.5,8.8,30.04,NE,48,3.0,3.0,60,0.00,,,0.00,vanprod-2.3,2013-03-21 21:49:00,
2013-03-21 16:54:00,20.3,7.5,30.04,NE,48,1.0,0.0,57,0.00,,,0.00,vanprod-2.3,2013-03-21 21:54:00,
2013-03-21 16:59:00,20.9,9.6,30.04,NE,48,3.0,3.0,61,0.00,,,0.00,vanprod-2.3,2013-03-21 21:59:00,
2013-03-21 17:04:00,20.9,8.8,30.04,NE,48,3.0,3.0,59,0.00,,,0.00,vanprod-2.3,2013-03-21 22:04:00,
2013-03-21 17:09:00,20.6,8.2,30.04,NE,48,3.0,6.0,58,0.00,,,0.00,vanprod-2.3,2013-03-21 22:09:00,
2013-03-21 17:14:00,20.6,9.3,30.04,NE,48,2.0,3.0,61,0.00,,,0.00,vanprod-2.3,2013-03-21 22:14:00,
2013-03-21 17:19:00,20.5,9.2,30.04,NE,48,4.0,5.0,61,0.00,,,0.00,vanprod-2.3,2013-03-21 22:19:00,
2013-03-21 17:24:00,20.1,8.8,30.05,NE,48,4.0,8.0,61,0.00,,,0.00,vanprod-2.3,2013-03-21 22:24:00,
2013-03-21 17:29:00,19.8,8.9,30.05,NE,48,4.0,5.0,62,0.00,,,0.00,vanprod-2.3,2013-03-21 22:29:00,
2013-03-21 17:34:00,20.0,9.8,30.04,NE,48,4.0,4.0,64,0.00,,,0.00,vanprod-2.3,2013-03-21 22:34:00,
2013-03-21 17:39:00,19.8,10.0,30.04,NE,47,5.0,6.0,65,0.00,,,0.00,vanprod-2.3,2013-03-21 22:39:00,
2013-03-21 17:44:00,19.7,10.5,30.04,NE,47,5.0,8.0,67,0.00,,,0.00,vanprod-2.3,2013-03-21 22:44:00,
2013-03-21 17:49:00,19.5,10.3,30.04,NE,41,3.0,4.0,67,0.00,,,0.00,vanprod-2.3,2013-03-21 22:49:00,
2013-03-21 17:54:00,19.8,10.3,30.04,NE,40,5.0,6.0,66,0.00,,,0.00,vanprod-2.3,2013-03-21 22:54:00,
2013-03-21 17:59:00,19.8,10.6,30.04,NE,40,2.0,2.0,67,0.00,,,0.00,vanprod-2.3,2013-03-21 22:59:00,
2013-03-21 18:04:00,19.7,10.2,30.04,NE,38,2.0,4.0,66,0.00,,,0.00,vanprod-2.3,2013-03-21 23:04:00,
2013-03-21 18:09:00,19.7,10.2,30.04,NE,38,6.0,6.0,66,0.00,,,0.00,vanprod-2.3,2013-03-21 23:09:00,
2013-03-21 18:14:00,19.5,10.3,30.04,NE,38,2.0,2.0,67,0.00,,,0.00,vanprod-2.3,2013-03-21 23:14:00,
2013-03-21 18:19:00,19.5,10.3,30.04,NE,37,5.0,5.0,67,0.00,,,0.00,vanprod-2.3,2013-03-21 23:19:00,
2013-03-21 18:24:00,19.4,9.6,30.04,NE,38,4.0,5.0,65,0.00,,,0.00,vanprod-2.3,2013-03-21 23:24:00,
2013-03-21 18:29:00,19.4,9.9,30.04,NE,37,4.0,5.0,66,0.00,,,0.00,vanprod-2.3,2013-03-21 23:29:00,
2013-03-21 18:34:00,19.4,9.6,30.04,NE,37,4.0,4.0,65,0.00,,,0.00,vanprod-2.3,2013-03-21 23:34:00,
2013-03-21 18:39:00,19.2,9.7,30.04,NE,37,2.0,3.0,66,0.00,,,0.00,vanprod-2.3,2013-03-21 23:39:00,
2013-03-21 18:44:00,19.2,10.1,30.05,NE,38,4.0,4.0,67,0.00,,,0.00,vanprod-2.3,2013-03-21 23:44:00,
2013-03-21 18:49:00,19.0,9.9,30.05,NE,38,3.0,6.0,67,0.00,,,0.00,vanprod-2.3,2013-03-21 23:49:00,
2013-03-21 18:54:00,18.9,10.4,30.05,NE,38,3.0,5.0,69,0.00,,,0.00,vanprod-2.3,2013-03-21 23:54:00,
2013-03-21 18:59:00,18.7,10.2,30.05,NE,37,2.0,2.0,69,0.00,,,0.00,vanprod-2.3,2013-03-21 23:59:00,
2013-03-21 19:04:00,18.7,10.2,30.05,NE,37,1.0,0.0,69,0.00,,,0.00,vanprod-2.3,2013-03-22 00:04:00,
2013-03-21 19:09:00,18.7,10.2,30.05,NE,37,0.0,0.0,69,0.00,,,0.00,vanprod-2.3,2013-03-22 00:09:00,
2013-03-21 19:14:00,18.6,10.1,30.05,NE,37,2.0,3.0,69,0.00,,,0.00,vanprod-2.3,2013-03-22 00:14:00,
2013-03-21 19:19:00,18.4,10.3,30.05,NE,37,1.0,0.0,70,0.00,,,0.00,vanprod-2.3,2013-03-22 00:19:00,
2013-03-21 19:24:00,18.3,10.5,30.05,NE,37,2.0,3.0,71,0.00,,,0.00,vanprod-2.3,2013-03-22 00:24:00,
2013-03-21 19:29:00,18.1,10.3,30.05,NE,37,1.0,0.0,71,0.00,,,0.00,vanprod-2.3,2013-03-22 00:29:00,
2013-03-21 19:34:00,17.9,10.4,30.05,NE,37,0.0,0.0,72,0.00,,,0.00,vanprod-2.3,2013-03-22 00:34:00,
2013-03-21 19:39:00,17.8,10.3,30.05,NE,37,0.0,0.0,72,0.00,,,0.00,vanprod-2.3,2013-03-22 00:39:00,
2013-03-21 19:44:00,17.6,10.4,30.04,NE,37,1.0,2.0,73,0.00,,,0.00,vanprod-2.3,2013-03-22 00:44:00,
2013-03-21 19:49:00,17.5,10.3,30.05,NE,37,0.0,0.0,73,0.00,,,0.00,vanprod-2.3,2013-03-22 00:49:00,
2013-03-21 19:54:00,17.5,10.3,30.05,NE,37,0.0,0.0,73,0.00,,,0.00,vanprod-2.3,2013-03-22 00:54:00,
2013-03-21 19:59:00,17.3,10.4,30.05,NE,37,0.0,0.0,74,0.00,,,0.00,vanprod-2.3,2013-03-22 00:59:00,
2013-03-21 20:04:00,17.2,10.4,30.05,NE,37,0.0,0.0,74,0.00,,,0.00,vanprod-2.3,2013-03-22 01:04:00,
2013-03-21 20:09:00,17.0,10.2,30.05,NE,37,0.0,0.0,74,0.00,,,0.00,vanprod-2.3,2013-03-22 01:09:00,
2013-03-21 20:14:00,16.8,10.0,30.05,NE,37,0.0,0.0,74,0.00,,,0.00,vanprod-2.3,2013-03-22 01:14:00,
2013-03-21 20:19:00,16.8,10.0,30.05,NE,37,0.0,0.0,74,0.00,,,0.00,vanprod-2.3,2013-03-22 01:19:00,
2013-03-21 20:24:00,16.7,9.9,30.05,NE,37,0.0,0.0,74,0.00,,,0.00,vanprod-2.3,2013-03-22 01:24:00,
2013-03-21 20:29:00,16.5,9.7,30.05,NE,37,0.0,0.0,74,0.00,,,0.00,vanprod-2.3,2013-03-22 01:29:00,
2013-03-21 20:34:00,16.4,9.6,30.05,NE,37,0.0,0.0,74,0.00,,,0.00,vanprod-2.3,2013-03-22 01:34:00,
2013-03-21 20:39:00,16.2,9.4,30.05,NE,37,0.0,0.0,74,0.00,,,0.00,vanprod-2.3,2013-03-22 01:39:00,
2013-03-21 20:44:00,16.0,9.2,30.06,NE,37,0.0,0.0,74,0.00,,,0.00,vanprod-2.3,2013-03-22 01:44:00,
2013-03-21 20:49:00,16.0,9.2,30.06,NE,37,0.0,0.0,74,0.00,,,0.00,vanprod-2.3,2013-03-22 01:49:00,
2013-03-21 20:54:00,15.7,8.9,30.06,NE,37,0.0,0.0,74,0.00,,,0.00,vanprod-2.3,2013-03-22 01:54:00,
2013-03-21 20:59:00,15.7,8.9,30.06,NE,37,0.0,0.0,74,0.00,,,0.00,vanprod-2.3,2013-03-22 01:59:00,
2013-03-21 21:04:00,15.6,8.8,30.06,NE,37,0.0,0.0,74,0.00,,,0.00,vanprod-2.3,2013-03-22 02:04:00,
2013-03-21 21:09:00,15.4,8.6,30.06,NE,37,0.0,0.0,74,0.00,,,0.00,vanprod-2.3,2013-03-22 02:09:00,
2013-03-21 21:14:00,15.4,8.6,30.06,NE,37,0.0,1.0,74,0.00,,,0.00,vanprod-2.3,2013-03-22 02:14:00,
2013-03-21 21:19:00,15.2,8.4,30.06,NE,37,0.0,0.0,74,0.00,,,0.00,vanprod-2.3,2013-03-22 02:19:00,
2013-03-21 21:24:00,15.2,8.4,30.07,NE,37,0.0,0.0,74,0.00,,,0.00,vanprod-2.3,2013-03-22 02:24:00,
2013-03-21 21:29:00,15.1,8.3,30.07,NE,37,0.0,0.0,74,0.00,,,0.00,vanprod-2.3,2013-03-22 02:29:00,
2013-03-21 21:34:00,15.1,8.3,30.07,NE,37,0.0,0.0,74,0.00,,,0.00,vanprod-2.3,2013-03-22 02:34:00,
2013-03-21 21:39:00,15.1,8.0,30.07,NE,37,0.0,0.0,73,0.00,,,0.00,vanprod-2.3,2013-03-22 02:39:00,
2013-03-21 21:44:00,14.9,8.1,30.08,NE,37,0.0,0.0,74,0.00,,,0.00,vanprod-2.3,2013-03-22 02:44:00,
2013-03-21 21:49:00,14.9,7.8,30.08,NE,37,0.0,0.0,73,0.00,,,0.00,vanprod-2.3,2013-03-22 02:49:00,
2013-03-21 21:54:00,14.9,7.8,30.08,NE,37,0.0,0.0,73,0.00,,,0.00,vanprod-2.3,2013-03-22 02:54:00,
2013-03-21 21:59:00,14.7,7.6,30.08,NE,37,0.0,0.0,73,0.00,,,0.00,vanprod-2.3,2013-03-22 02:59:00,
2013-03-21 22:04:00,14.7,7.6,30.07,NE,37,0.0,0.0,73,0.00,,,0.00,vanprod-2.3,2013-03-22 03:04:00,
2013-03-21 22:09:00,14.3,7.2,30.07,NE,37,0.0,0.0,73,0.00,,,0.00,vanprod-2.3,2013-03-22 03:09:00,
2013-03-21 22:14:00,14.1,7.4,30.07,NE,37,0.0,0.0,74,0.00,,,0.00,vanprod-2.3,2013-03-22 03:14:00,
2013-03-21 22:19:00,13.9,7.2,30.08,NE,37,0.0,0.0,74,0.00,,,0.00,vanprod-2.3,2013-03-22 03:19:00,
2013-03-21 22:24:00,13.8,7.1,30.08,NE,37,0.0,0.0,74,0.00,,,0.00,vanprod-2.3,2013-03-22 03:24:00,
2013-03-21 22:29:00,13.8,7.1,30.08,NE,37,0.0,0.0,74,0.00,,,0.00,vanprod-2.3,2013-03-22 03:29:00,
2013-03-21 22:34:00,13.6,7.2,30.08,NE,37,0.0,0.0,75,0.00,,,0.00,vanprod-2.3,2013-03-22 03:34:00,
2013-03-21 22:39:00,13.6,7.2,30.08,NE,37,0.0,0.0,75,0.00,,,0.00,vanprod-2.3,2013-03-22 03:39:00,
2013-03-21 22:44:00,13.5,7.1,30.08,NE,37,0.0,0.0,75,0.00,,,0.00,vanprod-2.3,2013-03-22 03:44:00,
2013-03-21 22:49:00,13.3,6.9,30.08,NE,37,0.0,0.0,75,0.00,,,0.00,vanprod-2.3,2013-03-22 03:49:00,
2013-03-21 22:54:00,13.0,6.9,30.08,NE,37,0.0,0.0,76,0.00,,,0.00,vanprod-2.3,2013-03-22 03:54:00,
2013-03-21 22:59:00,12.8,7.0,30.08,NE,37,0.0,0.0,77,0.00,,,0.00,vanprod-2.3,2013-03-22 03:59:00,
2013-03-21 23:00:00,12.6,6.8,30.08,NE,37,0.0,0.0,77,0.00,,,0.00,vanprod-2.3,2013-03-22 04:00:00,
2013-03-21 23:05:00,12.4,6.6,30.08,NE,37,0.0,0.0,77,0.00,,,0.00,vanprod-2.3,2013-03-22 04:05:00,
2013-03-21 23:10:00,12.4,6.6,30.08,NE,37,0.0,0.0,77,0.00,,,0.00,vanprod-2.3,2013-03-22 04:10:00,
2013-03-21 23:15:00,12.4,6.6,30.08,NE,37,0.0,0.0,77,0.00,,,0.00,vanprod-2.3,2013-03-22 04:15:00,
2013-03-21 23:20:00,12.4,6.6,30.08,NE,37,0.0,0.0,77,0.00,,,0.00,vanprod-2.3,2013-03-22 04:20:00,
2013-03-21 23:25:00,12.3,6.5,30.09,NE,37,0.0,0.0,77,0.00,,,0.00,vanprod-2.3,2013-03-22 04:25:00,
2013-03-21 23:30:00,11.9,6.4,30.09,NE,37,0.0,0.0,78,0.00,,,0.00,vanprod-2.3,2013-03-22 04:30:00,
2013-03-21 23:35:00,11.8,6.3,30.09,NE,37,0.0,0.0,78,0.00,,,0.00,vanprod-2.3,2013-03-22 04:35:00,
2013-03-21 23:40:00,11.6,6.1,30.09,NE,37,0.0,0.0,78,0.00,,,0.00,vanprod-2.3,2013-03-22 04:40:00,
2013-03-21 23:45:00,11.6,6.1,30.09,NE,37,0.0,0.0,78,0.00,,,0.00,vanprod-2.3,2013-03-22 04:45:00,
2013-03-21 23:50:00,11.4,5.9,30.09,NE,37,0.0,0.0,78,0.00,,,0.00,vanprod-2.3,2013-03-22 04:50:00,
2013-03-21 23:55:00,11.4,6.2,30.09,NE,37,0.0,0.0,79,0.00,,,0.00,vanprod-2.3,2013-03-22 04:55:00,